createdAt,value
2017-04-12T00:00:06.200Z,1013.94
2017-04-12T00:01:16.732Z,1013.89
2017-04-12T00:02:26.709Z,1013.92
2017-04-12T00:03:36.686Z,1013.87
2017-04-12T00:04:46.666Z,1013.86
2017-04-12T00:05:56.951Z,1013.84
2017-04-12T00:07:07.176Z,1013.82
2017-04-12T00:08:17.448Z,1013.79
2017-04-12T00:09:27.138Z,1013.74
2017-04-12T00:10:37.427Z,1013.73
2017-04-12T00:11:47.428Z,1013.73
2017-04-12T00:12:57.964Z,1013.69
2017-04-12T00:14:08.460Z,1013.68
2017-04-12T00:15:18.748Z,1013.66
2017-04-12T00:16:28.725Z,1013.59
2017-04-12T00:17:39.017Z,1013.59
2017-04-12T00:18:49.573Z,1013.56
2017-04-12T00:19:59.875Z,1013.58
2017-04-12T00:21:10.165Z,1013.55
2017-04-12T00:22:20.141Z,1013.53
2017-04-12T00:23:30.116Z,1013.47
2017-04-12T00:24:40.659Z,1013.51
2017-04-12T00:25:50.949Z,1013.47
2017-04-12T00:27:01.235Z,1013.5
2017-04-12T00:28:11.214Z,1013.45
2017-04-12T00:29:21.507Z,1013.45
2017-04-12T00:30:31.733Z,1013.44
2017-04-12T00:31:42.011Z,1013.37
2017-04-12T00:32:52.313Z,1013.37
2017-04-12T00:34:02.282Z,1013.36
2017-04-12T00:35:12.570Z,1013.35
2017-04-12T00:36:22.840Z,1013.36
2017-04-12T00:37:32.811Z,1013.35
2017-04-12T00:38:43.098Z,1013.29
2017-04-12T00:39:53.385Z,1013.25
2017-04-12T00:41:03.669Z,1013.31
2017-04-12T00:42:13.883Z,1013.32
2017-04-12T00:43:24.165Z,1013.26
2017-04-12T00:44:34.457Z,1013.22
2017-04-12T00:45:44.432Z,1013.19
2017-04-12T00:46:54.716Z,1013.18
2017-04-12T00:48:04.942Z,1013.14
2017-04-12T00:49:15.233Z,1013.13
2017-04-12T00:50:25.220Z,1013.11
2017-04-12T00:51:35.506Z,1013.07
2017-04-12T00:52:45.187Z,1013.05
2017-04-12T00:53:55.715Z,1013.02
2017-04-12T00:55:05.992Z,1012.96
2017-04-12T00:56:15.969Z,1012.99
2017-04-12T00:57:26.273Z,1012.98
2017-04-12T00:58:36.554Z,1012.99
2017-04-12T00:59:47.141Z,1012.91
2017-04-12T01:00:57.443Z,1012.88
2017-04-12T01:02:07.415Z,1012.88
2017-04-12T01:03:17.707Z,1012.86
2017-04-12T01:04:28.004Z,1012.91
2017-04-12T01:05:38.553Z,1012.87
2017-04-12T01:06:48.832Z,1012.83
2017-04-12T01:07:58.857Z,1012.86
2017-04-12T01:09:08.839Z,1012.83
2017-04-12T01:10:19.134Z,1012.83
2017-04-12T01:11:29.669Z,1012.81
2017-04-12T01:12:39.646Z,1012.79
2017-04-12T01:13:49.931Z,1012.79
2017-04-12T01:15:00.217Z,1012.74
2017-04-12T01:16:10.210Z,1012.74
2017-04-12T01:17:20.436Z,1012.74
2017-04-12T01:18:30.737Z,1012.73
2017-04-12T01:19:41.021Z,1012.7
2017-04-12T01:20:51.387Z,1012.72
2017-04-12T01:22:01.054Z,1012.72
2017-04-12T01:23:11.590Z,1012.73
2017-04-12T01:24:21.882Z,1012.69
2017-04-12T01:25:31.850Z,1012.65
2017-04-12T01:26:42.153Z,1012.68
2017-04-12T01:27:52.450Z,1012.63
2017-04-12T01:29:03.030Z,1012.63
2017-04-12T01:30:13.369Z,1012.61
2017-04-12T01:31:23.655Z,1012.58
2017-04-12T01:32:33.634Z,1012.6
2017-04-12T01:33:43.916Z,1012.57
2017-04-12T01:34:54.716Z,1012.54
2017-04-12T01:36:05.032Z,1012.52
2017-04-12T01:37:15.346Z,1012.52
2017-04-12T01:38:25.639Z,1012.45
2017-04-12T01:39:35.612Z,1012.44
2017-04-12T01:40:45.593Z,1012.46
2017-04-12T01:41:55.870Z,1012.42
2017-04-12T01:43:05.841Z,1012.41
2017-04-12T01:44:15.808Z,1012.47
2017-04-12T01:45:25.805Z,1012.43
2017-04-12T01:46:36.339Z,1012.44
2017-04-12T01:47:46.630Z,1012.35
2017-04-12T01:48:56.976Z,1012.31
2017-04-12T01:50:07.255Z,1012.3
2017-04-12T01:51:17.645Z,1012.29
2017-04-12T01:52:27.950Z,1012.23
2017-04-12T01:53:37.929Z,1012.24
2017-04-12T01:54:47.906Z,1012.2
2017-04-12T01:55:57.877Z,1012.18
2017-04-12T01:57:08.175Z,1012.17
2017-04-12T01:58:18.762Z,1012.18
2017-04-12T01:59:29.043Z,1012.17
2017-04-12T02:00:39.325Z,1012.1
2017-04-12T02:01:49.620Z,1012.11
2017-04-12T02:02:59.675Z,1012.11
2017-04-12T02:04:09.916Z,1012.1
2017-04-12T02:05:20.220Z,1012.04
2017-04-12T02:06:30.507Z,1012.03
2017-04-12T02:07:40.477Z,1012
2017-04-12T02:08:50.761Z,1011.98
2017-04-12T02:10:01.342Z,1011.94
2017-04-12T02:11:11.343Z,1011.95
2017-04-12T02:12:21.629Z,1011.97
2017-04-12T02:13:31.915Z,1011.9
2017-04-12T02:14:41.882Z,1011.91
2017-04-12T02:15:52.412Z,1011.84
2017-04-12T02:17:02.691Z,1011.83
2017-04-12T02:18:12.978Z,1011.82
2017-04-12T02:19:23.269Z,1011.81
2017-04-12T02:20:33.234Z,1011.77
2017-04-12T02:21:43.781Z,1011.77
2017-04-12T02:22:54.069Z,1011.79
2017-04-12T02:24:04.350Z,1011.76
2017-04-12T02:25:14.347Z,1011.72
2017-04-12T02:26:24.317Z,1011.72
2017-04-12T02:27:34.845Z,1011.67
2017-04-12T02:28:45.129Z,1011.64
2017-04-12T02:29:55.418Z,1011.61
2017-04-12T02:31:05.764Z,1011.62
2017-04-12T02:32:15.738Z,1011.57
2017-04-12T02:33:26.283Z,1011.59
2017-04-12T02:34:36.564Z,1011.54
2017-04-12T02:35:45.913Z,1011.54
2017-04-12T02:36:55.570Z,1011.56
2017-04-12T02:38:05.852Z,1011.59
2017-04-12T02:39:16.394Z,1011.51
2017-04-12T02:40:26.683Z,1011.5
2017-04-12T02:41:36.967Z,1011.51
2017-04-12T02:42:47.264Z,1011.46
2017-04-12T02:43:57.554Z,1011.46
2017-04-12T02:53:10.860Z,1011.36
2017-04-12T02:54:20.830Z,1011.33
2017-04-12T02:55:31.109Z,1011.36
2017-04-12T02:56:41.396Z,1011.3
2017-04-12T02:57:51.759Z,1011.27
2017-04-12T02:59:01.736Z,1011.28
2017-04-12T03:00:11.908Z,1011.27
2017-04-12T03:01:22.195Z,1011.23
2017-04-12T03:02:32.485Z,1011.24
2017-04-12T03:03:43.026Z,1011.22
2017-04-12T03:04:53.307Z,1011.18
2017-04-12T03:06:03.792Z,1011.15
2017-04-12T03:07:13.764Z,1011.14
2017-04-12T03:08:23.728Z,1011.17
2017-04-12T03:09:34.272Z,1011.1
2017-04-12T03:10:44.240Z,1011.12
2017-04-12T03:11:54.521Z,1011.14
2017-04-12T03:13:04.489Z,1011.08
2017-04-12T03:14:14.533Z,1011.14
2017-04-12T03:15:25.073Z,1011.08
2017-04-12T03:16:35.348Z,1011.08
2017-04-12T03:17:45.328Z,1011.13
2017-04-12T03:18:55.347Z,1011.06
2017-04-12T03:20:05.321Z,1011.08
2017-04-12T03:21:15.851Z,1011.01
2017-04-12T03:22:26.134Z,1010.98
2017-04-12T03:23:36.107Z,1011.05
2017-04-12T03:24:46.389Z,1010.98
2017-04-12T03:25:56.367Z,1011.01
2017-04-12T03:27:06.587Z,1010.95
2017-04-12T03:28:16.876Z,1010.97
2017-04-12T03:29:27.169Z,1010.95
2017-04-12T03:30:37.457Z,1010.97
2017-04-12T03:31:47.740Z,1010.97
2017-04-12T03:32:58.387Z,1010.96
2017-04-12T03:34:08.350Z,1010.93
2017-04-12T03:35:18.368Z,1010.92
2017-04-12T03:36:28.649Z,1010.92
2017-04-12T03:37:38.925Z,1010.91
2017-04-12T03:38:49.519Z,1010.91
2017-04-12T03:39:59.810Z,1010.82
2017-04-12T03:41:10.117Z,1010.9
2017-04-12T03:42:20.403Z,1010.84
2017-04-12T03:43:30.685Z,1010.82
2017-04-12T03:44:41.223Z,1010.86
2017-04-12T03:45:51.510Z,1010.81
2017-04-12T03:47:01.797Z,1010.8
2017-04-12T03:48:12.081Z,1010.84
2017-04-12T03:49:22.382Z,1010.85
2017-04-12T03:50:32.940Z,1010.81
2017-04-12T03:51:43.233Z,1010.83
2017-04-12T03:52:53.533Z,1010.83
2017-04-12T03:54:03.844Z,1010.8
2017-04-12T03:55:14.183Z,1010.8
2017-04-12T03:56:24.723Z,1010.84
2017-04-12T03:57:35.012Z,1010.78
2017-04-12T03:58:45.194Z,1010.84
2017-04-12T03:59:55.483Z,1010.79
2017-04-12T04:01:05.452Z,1010.79
2017-04-12T04:02:15.688Z,1010.83
2017-04-12T04:03:25.969Z,1010.85
2017-04-12T04:04:35.957Z,1010.8
2017-04-12T04:05:46.241Z,1010.76
2017-04-12T04:06:56.221Z,1010.83
2017-04-12T04:08:06.769Z,1010.75
2017-04-12T04:09:17.051Z,1010.76
2017-04-12T04:10:27.351Z,1010.74
2017-04-12T04:11:37.636Z,1010.72
2017-04-12T04:12:48.035Z,1010.73
2017-04-12T04:13:58.573Z,1010.73
2017-04-12T04:15:08.871Z,1010.76
2017-04-12T04:16:19.161Z,1010.69
2017-04-12T04:17:29.130Z,1010.72
2017-04-12T04:18:39.412Z,1010.73
2017-04-12T04:19:49.639Z,1010.74
2017-04-12T04:20:59.931Z,1010.69
2017-04-12T04:22:10.219Z,1010.63
2017-04-12T04:23:20.200Z,1010.67
2017-04-12T04:24:30.481Z,1010.68
2017-04-12T04:25:41.036Z,1010.68
2017-04-12T04:26:51.320Z,1010.65
2017-04-12T04:28:01.611Z,1010.69
2017-04-12T04:29:11.900Z,1010.6
2017-04-12T04:30:22.186Z,1010.64
2017-04-12T04:31:32.734Z,1010.61
2017-04-12T04:32:43.010Z,1010.62
2017-04-12T04:33:53.297Z,1010.55
2017-04-12T04:35:03.615Z,1010.58
2017-04-12T04:36:13.916Z,1010.54
2017-04-12T04:37:24.137Z,1010.56
2017-04-12T04:38:33.793Z,1010.51
2017-04-12T04:39:44.083Z,1010.51
2017-04-12T04:40:53.745Z,1010.51
2017-04-12T04:42:04.086Z,1010.58
2017-04-12T04:43:14.721Z,1010.54
2017-04-12T04:44:24.706Z,1010.53
2017-04-12T04:45:34.986Z,1010.5
2017-04-12T04:46:45.290Z,1010.53
2017-04-12T04:47:55.563Z,1010.53
2017-04-12T04:49:06.432Z,1010.5
2017-04-12T04:50:16.933Z,1010.47
2017-04-12T04:51:27.239Z,1010.46
2017-04-12T04:52:37.400Z,1010.51
2017-04-12T04:53:47.692Z,1010.46
2017-04-12T04:54:58.338Z,1010.47
2017-04-12T04:56:08.658Z,1010.46
2017-04-12T04:57:18.635Z,1010.51
2017-04-12T04:58:28.917Z,1010.5
2017-04-12T04:59:38.888Z,1010.47
2017-04-12T05:00:49.167Z,1010.48
2017-04-12T05:01:59.448Z,1010.42
2017-04-12T05:03:09.725Z,1010.43
2017-04-12T05:04:19.701Z,1010.46
2017-04-12T05:05:29.993Z,1010.41
2017-04-12T05:06:40.269Z,1010.36
2017-04-12T05:07:50.237Z,1010.42
2017-04-12T05:09:00.518Z,1010.38
2017-04-12T05:10:10.802Z,1010.38
2017-04-12T05:11:20.483Z,1010.37
2017-04-12T05:12:31.011Z,1010.32
2017-04-12T05:13:41.321Z,1010.34
2017-04-12T05:14:51.629Z,1010.32
2017-04-12T05:16:01.630Z,1010.33
2017-04-12T05:17:11.599Z,1010.33
2017-04-12T05:18:21.821Z,1010.33
2017-04-12T05:19:32.152Z,1010.31
2017-04-12T05:20:42.440Z,1010.29
2017-04-12T05:21:52.113Z,1010.31
2017-04-12T05:23:02.095Z,1010.25
2017-04-12T05:24:12.013Z,1010.25
2017-04-12T05:25:22.297Z,1010.27
2017-04-12T05:26:32.298Z,1010.25
2017-04-12T05:27:42.602Z,1010.24
2017-04-12T05:28:52.899Z,1010.22
2017-04-12T05:30:03.476Z,1010.24
2017-04-12T05:31:13.453Z,1010.23
2017-04-12T05:32:23.734Z,1010.26
2017-04-12T05:33:33.713Z,1010.24
2017-04-12T05:34:44.004Z,1010.23
2017-04-12T05:35:54.557Z,1010.29
2017-04-12T05:37:04.838Z,1010.23
2017-04-12T05:38:15.117Z,1010.19
2017-04-12T05:39:25.100Z,1010.26
2017-04-12T05:40:35.075Z,1010.19
2017-04-12T05:41:45.878Z,1010.19
2017-04-12T05:42:56.184Z,1010.19
2017-04-12T05:44:06.494Z,1010.18
2017-04-12T05:45:16.465Z,1010.17
2017-04-12T05:46:26.737Z,1010.13
2017-04-12T05:47:37.281Z,1010.13
2017-04-12T05:48:47.271Z,1010.11
2017-04-12T05:49:57.570Z,1010.1
2017-04-12T05:51:07.867Z,1010.1
2017-04-12T05:52:18.157Z,1010.11
2017-04-12T05:53:28.694Z,1010.05
2017-04-12T05:54:38.673Z,1010.09
2017-04-12T05:55:48.972Z,1010
2017-04-12T05:56:59.271Z,1010.02
2017-04-12T05:58:09.241Z,1010.02
2017-04-12T05:59:19.473Z,1010.08
2017-04-12T06:00:29.466Z,1010.08
2017-04-12T06:01:39.459Z,1010.05
2017-04-12T06:02:49.442Z,1010.04
2017-04-12T06:03:59.427Z,1010.04
2017-04-12T06:05:09.960Z,1010
2017-04-12T06:06:19.954Z,1010.02
2017-04-12T06:07:29.939Z,1010.04
2017-04-12T06:08:40.246Z,1009.98
2017-04-12T06:09:50.530Z,1009.93
2017-04-12T06:11:00.806Z,1009.94
2017-04-12T06:12:10.807Z,1009.98
2017-04-12T06:13:21.118Z,1009.97
2017-04-12T06:14:31.123Z,1009.94
2017-04-12T06:15:41.409Z,1009.92
2017-04-12T06:16:51.945Z,1009.88
2017-04-12T06:18:02.236Z,1009.88
2017-04-12T06:19:12.560Z,1009.87
2017-04-12T06:20:22.863Z,1009.94
2017-04-12T06:21:33.155Z,1009.9
2017-04-12T06:22:43.748Z,1009.9
2017-04-12T06:23:54.045Z,1009.91
2017-04-12T06:25:04.329Z,1009.84
2017-04-12T06:26:14.326Z,1009.85
2017-04-12T06:27:24.623Z,1009.85
2017-04-12T06:28:35.180Z,1009.84
2017-04-12T06:29:45.159Z,1009.87
2017-04-12T06:30:55.515Z,1009.84
2017-04-12T06:32:05.813Z,1009.84
2017-04-12T06:33:16.098Z,1009.83
2017-04-12T06:34:26.631Z,1009.81
2017-04-12T06:35:36.603Z,1009.82
2017-04-12T06:36:46.570Z,1009.82
2017-04-12T06:37:56.547Z,1009.8
2017-04-12T06:39:06.537Z,1009.78
2017-04-12T06:40:17.064Z,1009.75
2017-04-12T06:41:27.366Z,1009.74
2017-04-12T06:42:37.861Z,1009.71
2017-04-12T06:43:47.865Z,1009.7
2017-04-12T06:44:58.151Z,1009.67
2017-04-12T06:46:08.746Z,1009.64
2017-04-12T06:47:19.031Z,1009.6
2017-04-12T06:48:28.999Z,1009.57
2017-04-12T06:49:39.286Z,1009.51
2017-04-12T06:50:49.267Z,1009.56
2017-04-12T06:51:59.851Z,1009.57
2017-04-12T06:53:09.831Z,1009.55
2017-04-12T06:54:20.122Z,1009.57
2017-04-12T06:55:30.429Z,1009.58
2017-04-12T06:56:40.726Z,1009.55
2017-04-12T06:57:51.636Z,1009.53
2017-04-12T06:59:01.686Z,1009.47
2017-04-12T07:00:11.777Z,1009.49
2017-04-12T07:01:22.074Z,1009.48
2017-04-12T07:02:32.115Z,1009.48
2017-04-12T07:03:42.663Z,1009.49
2017-04-12T07:04:52.651Z,1009.5
2017-04-12T07:06:02.649Z,1009.48
2017-04-12T07:07:12.623Z,1009.44
2017-04-12T07:08:22.926Z,1009.44
2017-04-12T07:09:33.566Z,1009.47
2017-04-12T07:10:43.857Z,1009.4
2017-04-12T07:11:54.152Z,1009.4
2017-04-12T07:13:04.432Z,1009.34
2017-04-12T07:14:14.741Z,1009.29
2017-04-12T07:15:24.977Z,1009.24
2017-04-12T07:16:34.945Z,1009.1
2017-04-12T07:17:45.225Z,1008.99
2017-04-12T07:18:55.203Z,1008.94
2017-04-12T07:20:05.512Z,1008.89
2017-04-12T07:21:16.130Z,1008.98
2017-04-12T07:22:26.436Z,1009.08
2017-04-12T07:23:36.725Z,1009.09
2017-04-12T07:24:47.036Z,1009.07
2017-04-12T07:25:57.323Z,1009.05
2017-04-12T07:27:07.744Z,1009.03
2017-04-12T07:28:17.735Z,1009.05
2017-04-12T07:29:28.057Z,1009.03
2017-04-12T07:30:38.359Z,1009.03
2017-04-12T07:31:48.333Z,1008.93
2017-04-12T07:32:58.568Z,1009.01
2017-04-12T07:34:08.564Z,1008.99
2017-04-12T07:35:18.882Z,1009.04
2017-04-12T07:36:28.875Z,1009
2017-04-12T07:37:39.058Z,1008.97
2017-04-12T07:38:49.602Z,1008.96
2017-04-12T07:39:59.907Z,1008.92
2017-04-12T07:41:10.236Z,1008.99
2017-04-12T07:42:20.536Z,1008.96
2017-04-12T07:43:30.831Z,1008.93
2017-04-12T07:44:41.382Z,1008.94
2017-04-12T07:45:51.697Z,1008.92
2017-04-12T07:47:01.365Z,1008.87
2017-04-12T07:48:11.355Z,1008.86
2017-04-12T07:49:21.656Z,1008.83
2017-04-12T07:50:31.893Z,1008.74
2017-04-12T07:51:42.205Z,1008.79
2017-04-12T07:52:52.180Z,1008.79
2017-04-12T07:54:02.464Z,1008.78
2017-04-12T07:55:12.433Z,1008.79
2017-04-12T07:56:22.972Z,1008.81
2017-04-12T07:57:32.640Z,1008.73
2017-04-12T07:58:42.957Z,1008.8
2017-04-12T07:59:53.251Z,1008.75
2017-04-12T08:01:03.538Z,1008.79
2017-04-12T08:02:14.086Z,1008.77
2017-04-12T08:03:24.375Z,1008.76
2017-04-12T08:04:34.354Z,1008.77
2017-04-12T08:05:44.369Z,1008.71
2017-04-12T08:06:54.052Z,1008.75
2017-04-12T08:08:04.934Z,1008.72
2017-04-12T08:09:15.129Z,1008.77
2017-04-12T08:10:24.717Z,1008.7
2017-04-12T08:11:34.712Z,1008.72
2017-04-12T08:12:44.993Z,1008.73
2017-04-12T08:13:55.557Z,1008.65
2017-04-12T08:15:05.850Z,1008.66
2017-04-12T08:16:16.138Z,1008.65
2017-04-12T08:17:26.428Z,1008.63
2017-04-12T08:18:36.713Z,1008.58
2017-04-12T08:19:46.939Z,1008.59
2017-04-12T08:20:56.906Z,1008.67
2017-04-12T08:22:06.581Z,1008.67
2017-04-12T08:23:16.552Z,1008.7
2017-04-12T08:24:26.837Z,1008.59
2017-04-12T08:25:37.373Z,1008.67
2017-04-12T08:26:47.369Z,1008.56
2017-04-12T08:27:57.680Z,1008.55
2017-04-12T08:29:07.965Z,1008.57
2017-04-12T08:30:17.947Z,1008.58
2017-04-12T08:31:28.495Z,1008.56
2017-04-12T08:32:38.796Z,1008.51
2017-04-12T08:33:49.084Z,1008.47
2017-04-12T08:34:59.376Z,1008.4
2017-04-12T08:36:09.046Z,1008.4
2017-04-12T08:37:19.335Z,1008.43
2017-04-12T08:38:29.318Z,1008.44
2017-04-12T08:39:39.608Z,1008.47
2017-04-12T08:40:49.587Z,1008.44
2017-04-12T08:41:59.883Z,1008.4
2017-04-12T08:43:10.421Z,1008.39
2017-04-12T08:44:20.403Z,1008.37
2017-04-12T08:45:30.400Z,1008.26
2017-04-12T08:46:40.696Z,1008.33
2017-04-12T08:47:50.984Z,1008.29
2017-04-12T08:49:01.206Z,1008.33
2017-04-12T08:50:11.505Z,1008.28
2017-04-12T08:51:21.474Z,1008.32
2017-04-12T08:52:31.140Z,1008.27
2017-04-12T08:53:41.117Z,1008.27
2017-04-12T08:54:51.665Z,1008.3
2017-04-12T08:56:01.637Z,1008.28
2017-04-12T08:57:11.615Z,1008.28
2017-04-12T08:58:21.602Z,1008.26
2017-04-12T08:59:31.883Z,1008.26
2017-04-12T09:00:41.797Z,1008.21
2017-04-12T09:01:52.103Z,1008.26
2017-04-12T09:03:02.082Z,1008.15
2017-04-12T09:04:12.601Z,1008.13
2017-04-12T09:05:22.584Z,1008.07
2017-04-12T09:06:33.172Z,1008.12
2017-04-12T09:07:43.465Z,1008.12
2017-04-12T09:08:53.778Z,1008.08
2017-04-12T09:10:04.068Z,1008.01
2017-04-12T09:11:14.352Z,1008.03
2017-04-12T09:12:24.890Z,1008.05
2017-04-12T09:13:34.605Z,1008.06
2017-04-12T09:14:44.939Z,1008.04
2017-04-12T09:15:55.242Z,1008
2017-04-12T09:17:05.539Z,1008.03
2017-04-12T09:18:16.090Z,1008.02
2017-04-12T09:19:26.379Z,1008.05
2017-04-12T09:20:36.724Z,1008.04
2017-04-12T09:21:46.700Z,1008
2017-04-12T09:22:57.020Z,1007.93
2017-04-12T09:24:07.558Z,1008.02
2017-04-12T09:25:17.863Z,1007.99
2017-04-12T09:26:27.863Z,1007.99
2017-04-12T09:27:38.163Z,1007.98
2017-04-12T09:28:48.157Z,1007.92
2017-04-12T09:29:58.137Z,1007.99
2017-04-12T09:31:08.442Z,1007.93
2017-04-12T09:32:18.726Z,1007.93
2017-04-12T09:33:28.712Z,1007.93
2017-04-12T09:34:39.014Z,1007.9
2017-04-12T09:35:49.607Z,1007.88
2017-04-12T09:36:59.901Z,1007.87
2017-04-12T09:38:10.204Z,1007.85
2017-04-12T09:39:20.495Z,1007.81
2017-04-12T09:40:30.787Z,1007.76
2017-04-12T09:41:40.712Z,1007.73
2017-04-12T09:42:51.016Z,1007.78
2017-04-12T09:44:00.992Z,1007.83
2017-04-12T09:45:10.997Z,1007.78
2017-04-12T09:46:20.991Z,1007.73
2017-04-12T09:47:31.549Z,1007.66
2017-04-12T09:48:41.836Z,1007.7
2017-04-12T09:49:51.818Z,1007.68
2017-04-12T09:51:01.515Z,1007.61
2017-04-12T09:52:11.501Z,1007.62
2017-04-12T09:53:21.755Z,1007.57
2017-04-12T09:54:31.729Z,1007.55
2017-04-12T09:55:41.730Z,1007.57
2017-04-12T09:56:52.050Z,1007.67
2017-04-12T09:58:02.037Z,1007.58
2017-04-12T09:59:12.263Z,1007.62
2017-04-12T10:00:22.232Z,1007.6
2017-04-12T10:01:32.589Z,1007.56
2017-04-12T10:02:42.911Z,1007.53
2017-04-12T10:03:53.212Z,1007.57
2017-04-12T10:05:03.751Z,1007.42
2017-04-12T10:06:14.074Z,1007.53
2017-04-12T10:07:24.368Z,1007.52
2017-04-12T10:08:34.352Z,1007.4
2017-04-12T10:09:44.345Z,1007.47
2017-04-12T10:10:54.575Z,1007.49
2017-04-12T10:12:04.875Z,1007.5
2017-04-12T10:13:15.196Z,1007.45
2017-04-12T10:14:25.413Z,1007.43
2017-04-12T10:15:35.701Z,1007.46
2017-04-12T10:16:46.295Z,1007.34
2017-04-12T10:17:56.278Z,1007.41
2017-04-12T10:19:06.574Z,1007.36
2017-04-12T10:20:16.866Z,1007.35
2017-04-12T10:21:26.848Z,1007.35
2017-04-12T10:22:37.441Z,1007.32
2017-04-12T10:23:47.733Z,1007.37
2017-04-12T10:24:57.720Z,1007.34
2017-04-12T10:26:08.006Z,1007.29
2017-04-12T10:27:17.990Z,1007.35
2017-04-12T10:28:28.580Z,1007.35
2017-04-12T10:29:38.875Z,1007.34
2017-04-12T10:30:49.162Z,1007.36
2017-04-12T10:31:59.446Z,1007.4
2017-04-12T10:33:09.447Z,1007.31
2017-04-12T10:34:19.709Z,1007.37
2017-04-12T10:35:29.998Z,1007.31
2017-04-12T10:36:40.292Z,1007.26
2017-04-12T10:37:50.583Z,1007.29
2017-04-12T10:39:00.249Z,1007.2
2017-04-12T10:40:10.788Z,1007.16
2017-04-12T10:41:21.072Z,1007.22
2017-04-12T10:42:30.750Z,1007.18
2017-04-12T10:43:41.053Z,1007.15
2017-04-12T10:44:51.577Z,1007.13
2017-04-12T10:46:02.255Z,1007.13
2017-04-12T10:47:12.554Z,1007.1
2017-04-12T10:48:22.910Z,1007.02
2017-04-12T10:49:32.956Z,1007.04
2017-04-12T10:50:42.974Z,1007.04
2017-04-12T10:51:53.635Z,1006.99
2017-04-12T10:53:03.955Z,1007.01
2017-04-12T10:54:14.298Z,1006.93
2017-04-12T10:55:24.357Z,1006.9
2017-04-12T10:56:34.692Z,1006.95
2017-04-12T10:57:45.197Z,1006.9
2017-04-12T10:58:55.555Z,1006.92
2017-04-12T11:00:05.862Z,1006.91
2017-04-12T11:01:16.222Z,1006.91
2017-04-12T11:02:26.202Z,1006.82
2017-04-12T11:03:36.791Z,1006.9
2017-04-12T11:04:46.781Z,1006.8
2017-04-12T11:05:57.078Z,1006.79
2017-04-12T11:07:07.572Z,1006.75
2017-04-12T11:08:17.553Z,1006.74
2017-04-12T11:09:27.803Z,1006.71
2017-04-12T11:10:38.096Z,1006.79
2017-04-12T11:11:48.399Z,1006.76
2017-04-12T11:12:58.384Z,1006.69
2017-04-12T11:14:08.717Z,1006.67
2017-04-12T11:15:19.260Z,1006.6
2017-04-12T11:16:29.578Z,1006.56
2017-04-12T11:17:39.885Z,1006.61
2017-04-12T11:18:50.199Z,1006.57
2017-04-12T11:20:00.497Z,1006.51
2017-04-12T11:21:10.746Z,1006.55
2017-04-12T11:22:21.045Z,1006.57
2017-04-12T11:23:31.350Z,1006.46
2017-04-12T11:24:41.643Z,1006.5
2017-04-12T11:25:51.640Z,1006.48
2017-04-12T11:27:01.564Z,1006.39
2017-04-12T11:28:11.857Z,1006.39
2017-04-12T11:29:22.155Z,1006.44
2017-04-12T11:30:32.139Z,1006.41
2017-04-12T11:31:42.431Z,1006.41
2017-04-12T11:32:52.674Z,1006.33
2017-04-12T11:34:02.651Z,1006.33
2017-04-12T11:35:12.683Z,1006.38
2017-04-12T11:36:22.675Z,1006.28
2017-04-12T11:37:32.679Z,1006.28
2017-04-12T11:38:43.286Z,1006.29
2017-04-12T11:39:53.600Z,1006.24
2017-04-12T11:41:03.906Z,1006.26
2017-04-12T11:42:14.222Z,1006.2
2017-04-12T11:43:24.535Z,1006.2
2017-04-12T11:44:35.099Z,1006.15
2017-04-12T11:45:45.398Z,1006.12
2017-04-12T11:46:55.701Z,1006.12
2017-04-12T11:48:06.015Z,1006.11
2017-04-12T11:49:15.991Z,1006.07
2017-04-12T11:50:26.291Z,1006.1
2017-04-12T11:51:35.960Z,1006.09
2017-04-12T11:52:45.923Z,1006.04
2017-04-12T11:53:56.295Z,1006.03
2017-04-12T11:55:06.584Z,1006.09
2017-04-12T11:56:17.126Z,1006.13
2017-04-12T11:57:27.107Z,1006.07
2017-04-12T11:58:37.401Z,1006.01
2017-04-12T11:59:47.679Z,1006.03
2017-04-12T12:00:57.344Z,1006.05
2017-04-12T12:02:07.892Z,1006.03
2017-04-12T12:03:18.199Z,1006.11
2017-04-12T12:04:28.498Z,1006.01
2017-04-12T12:05:38.479Z,1005.98
2017-04-12T12:06:48.149Z,1006.04
2017-04-12T12:07:58.368Z,1006.07
2017-04-12T12:09:08.696Z,1006.03
2017-04-12T12:10:18.995Z,1006.07
2017-04-12T12:11:29.312Z,1006.04
2017-04-12T12:12:39.318Z,1006.09
2017-04-12T12:13:49.858Z,1006.04
2017-04-12T12:15:00.154Z,1006.05
2017-04-12T12:16:10.256Z,1006.04
2017-04-12T12:17:20.238Z,1006.09
2017-04-12T12:18:30.527Z,1005.99
2017-04-12T12:19:41.112Z,1005.94
2017-04-12T12:20:51.440Z,1006
2017-04-12T12:22:01.737Z,1005.94
2017-04-12T12:23:12.031Z,1005.91
2017-04-12T12:24:22.006Z,1005.92
2017-04-12T12:25:32.562Z,1005.91
2017-04-12T12:26:42.857Z,1005.84
2017-04-12T12:27:52.854Z,1005.91
2017-04-12T12:29:02.839Z,1005.86
2017-04-12T12:30:12.504Z,1005.89
2017-04-12T12:31:23.053Z,1005.93
2017-04-12T12:32:33.043Z,1005.94
2017-04-12T12:33:43.350Z,1005.79
2017-04-12T12:34:53.336Z,1005.78
2017-04-12T12:36:03.641Z,1005.75
2017-04-12T12:37:13.570Z,1005.69
2017-04-12T12:38:23.563Z,1005.7
2017-04-12T12:39:33.846Z,1005.72
2017-04-12T12:40:43.838Z,1005.68
2017-04-12T12:41:54.147Z,1005.68
2017-04-12T12:43:04.682Z,1005.6
2017-04-12T12:44:14.982Z,1005.6
2017-04-12T12:45:24.969Z,1005.56
2017-04-12T12:46:34.336Z,1005.55
2017-04-12T12:47:44.629Z,1005.49
2017-04-12T12:48:55.167Z,1005.49
2017-04-12T12:50:07.015Z,1005.54
2017-04-12T12:51:17.322Z,1005.43
2017-04-12T12:52:27.604Z,1005.48
2017-04-12T12:53:37.274Z,1005.44
2017-04-12T12:54:47.549Z,1005.42
2017-04-12T12:55:57.529Z,1005.39
2017-04-12T12:57:07.822Z,1005.36
2017-04-12T12:58:18.123Z,1005.32
2017-04-12T12:59:28.441Z,1005.39
2017-04-12T13:00:38.358Z,1005.35
2017-04-12T13:01:48.645Z,1005.35
2017-04-12T13:02:58.632Z,1005.32
2017-04-12T13:04:08.913Z,1005.28
2017-04-12T13:05:19.206Z,1005.31
2017-04-12T13:06:29.460Z,1005.26
2017-04-12T13:07:39.438Z,1005.27
2017-04-12T13:08:49.723Z,1005.3
2017-04-12T13:09:59.701Z,1005.29
2017-04-12T13:11:09.998Z,1005.27
2017-04-12T13:12:20.226Z,1005.26
2017-04-12T13:13:30.200Z,1005.28
2017-04-12T13:14:40.484Z,1005.26
2017-04-12T13:15:50.783Z,1005.27
2017-04-12T13:17:01.112Z,1005.16
2017-04-12T13:18:11.684Z,1005.18
2017-04-12T13:19:21.975Z,1005.21
2017-04-12T13:20:32.267Z,1005.15
2017-04-12T13:21:42.552Z,1005.12
2017-04-12T13:22:52.877Z,1005.1
2017-04-12T13:24:02.844Z,1005.06
2017-04-12T13:25:12.513Z,1005.07
2017-04-12T13:26:22.831Z,1004.99
2017-04-12T13:27:32.807Z,1004.97
2017-04-12T13:28:43.091Z,1005
2017-04-12T13:29:53.636Z,1004.92
2017-04-12T13:31:03.311Z,1004.94
2017-04-12T13:32:13.594Z,1004.9
2017-04-12T13:33:23.891Z,1004.87
2017-04-12T13:34:34.201Z,1004.91
2017-04-12T13:35:44.793Z,1004.88
2017-04-12T13:36:55.087Z,1004.85
2017-04-12T13:38:05.424Z,1004.81
2017-04-12T13:39:15.743Z,1004.83
2017-04-12T13:40:26.032Z,1004.82
2017-04-12T13:41:36.568Z,1004.77
2017-04-12T13:42:46.864Z,1004.78
2017-04-12T13:43:56.858Z,1004.73
2017-04-12T13:45:07.351Z,1004.75
2017-04-12T13:46:17.647Z,1004.74
2017-04-12T13:47:27.933Z,1004.71
2017-04-12T13:48:38.239Z,1004.68
2017-04-12T13:49:48.525Z,1004.73
2017-04-12T13:50:58.845Z,1004.76
2017-04-12T13:52:09.143Z,1004.69
2017-04-12T13:53:19.421Z,1004.75
2017-04-12T13:54:29.718Z,1004.73
2017-04-12T13:55:40.007Z,1004.8
2017-04-12T13:56:49.983Z,1004.76
2017-04-12T13:57:59.956Z,1004.69
2017-04-12T13:59:10.506Z,1004.69
2017-04-12T14:00:20.787Z,1004.72
2017-04-12T14:01:30.761Z,1004.69
2017-04-12T14:02:40.738Z,1004.68
2017-04-12T14:03:50.731Z,1004.72
2017-04-12T14:05:01.292Z,1004.74
2017-04-12T14:06:11.268Z,1004.72
2017-04-12T14:07:21.293Z,1004.78
2017-04-12T14:08:31.592Z,1004.72
2017-04-12T14:09:41.829Z,1004.75
2017-04-12T14:10:52.365Z,1004.77
2017-04-12T14:12:02.353Z,1004.76
2017-04-12T14:13:12.640Z,1004.76
2017-04-12T14:14:22.950Z,1004.78
2017-04-12T14:15:33.254Z,1004.8
2017-04-12T14:16:43.509Z,1004.8
2017-04-12T14:17:53.501Z,1004.79
2017-04-12T14:19:03.482Z,1004.81
2017-04-12T14:20:13.785Z,1004.82